createdAt,value
2023-03-16T00:01:09.463Z,5.72
2023-03-16T00:06:11.370Z,3.85
2023-03-16T00:11:12.846Z,4.63
2023-03-16T00:16:16.885Z,2.78
2023-03-16T00:21:18.357Z,4.97
2023-03-16T00:26:19.883Z,2.20
2023-03-16T00:31:21.307Z,4.07
2023-03-16T00:36:22.791Z,3.95
2023-03-16T00:41:24.229Z,3.22
2023-03-16T00:46:26.878Z,3.70
2023-03-16T00:51:28.382Z,6.28
2023-03-16T00:56:29.755Z,3.53
2023-03-16T01:01:34.799Z,5.75
2023-03-16T01:06:37.779Z,9.60
2023-03-16T01:11:45.258Z,8.77
2023-03-16T01:16:46.826Z,8.85
2023-03-16T01:21:48.233Z,5.78
2023-03-16T01:26:49.704Z,9.07
2023-03-16T01:31:51.176Z,4.28
2023-03-16T01:36:53.340Z,4.15
2023-03-16T01:41:54.898Z,4.35
2023-03-16T01:46:56.978Z,6.32
2023-03-16T01:52:14.181Z,4.43
2023-03-16T01:57:19.568Z,4.65
2023-03-16T02:02:26.843Z,6.20
2023-03-16T02:07:30.616Z,4.45
2023-03-16T02:12:32.377Z,4.22
2023-03-16T02:17:36.373Z,5.38
2023-03-16T02:22:42.185Z,2.88
2023-03-16T02:28:29.437Z,3.72
2023-03-16T02:33:33.304Z,4.50
2023-03-16T02:38:34.797Z,5.20
2023-03-16T02:43:40.002Z,4.53
2023-03-16T02:48:46.621Z,5.72
2023-03-16T02:53:48.039Z,4.97
2023-03-16T02:58:49.614Z,5.68
2023-03-16T03:03:51.053Z,4.03
2023-03-16T03:08:52.602Z,6.88
2023-03-16T03:13:55.045Z,6.53
2023-03-16T03:18:56.498Z,9.25
2023-03-16T03:23:57.961Z,4.50
2023-03-16T03:28:59.369Z,6.80
2023-03-16T03:34:06.441Z,4.70
2023-03-16T03:39:08.204Z,4.47
2023-03-16T03:44:09.661Z,4.72
2023-03-16T03:49:11.191Z,4.38
2023-03-16T03:54:12.614Z,4.18
2023-03-16T03:59:14.046Z,5.35
2023-03-16T04:04:16.338Z,7.45
2023-03-16T04:09:17.806Z,4.03
2023-03-16T04:14:19.235Z,4.05
2023-03-16T04:19:22.678Z,3.60
2023-03-16T04:24:24.145Z,4.25
2023-03-16T04:29:25.654Z,4.43
2023-03-16T04:34:27.088Z,5.03
2023-03-16T04:39:28.761Z,2.65
2023-03-16T04:44:30.307Z,5.50
2023-03-16T04:49:31.786Z,6.10
2023-03-16T04:54:33.454Z,5.05
2023-03-16T04:59:34.998Z,6.40
2023-03-16T05:04:36.673Z,5.45
2023-03-16T05:09:38.152Z,7.88
2023-03-16T05:14:39.561Z,8.15
2023-03-16T05:19:42.228Z,12.00
2023-03-16T05:24:44.728Z,20.30
2023-03-16T05:29:46.732Z,10.77
2023-03-16T05:34:48.197Z,8.18
2023-03-16T05:39:49.704Z,8.43
2023-03-16T05:44:51.166Z,7.80
2023-03-16T05:49:52.574Z,9.38
2023-03-16T05:54:54.168Z,5.85
2023-03-16T05:59:55.567Z,8.23
2023-03-16T06:04:56.989Z,7.93
2023-03-16T06:09:58.429Z,8.45
2023-03-16T06:15:00.900Z,7.53
2023-03-16T06:20:03.611Z,8.40
2023-03-16T06:25:06.272Z,7.30
2023-03-16T06:30:10.023Z,7.22
2023-03-16T06:35:12.720Z,4.85
2023-03-16T06:40:14.210Z,5.70
2023-03-16T06:45:17.401Z,5.25
2023-03-16T06:50:18.961Z,6.15
2023-03-16T06:55:21.016Z,3.92
2023-03-16T07:00:22.780Z,7.00
2023-03-16T07:05:24.262Z,7.43
2023-03-16T07:10:25.787Z,6.25
2023-03-16T07:15:27.212Z,5.45
2023-03-16T07:20:31.423Z,4.55
2023-03-16T07:25:33.105Z,3.58
2023-03-16T07:30:34.568Z,4.78
2023-03-16T07:35:36.044Z,6.45
2023-03-16T07:40:39.571Z,4.40
2023-03-16T07:45:41.594Z,5.10
2023-03-16T07:50:44.105Z,4.30
2023-03-16T07:55:46.462Z,5.05
2023-03-16T08:00:48.011Z,4.15
2023-03-16T08:05:49.915Z,4.13
2023-03-16T08:10:53.171Z,4.57
2023-03-16T08:15:58.529Z,4.15
2023-03-16T08:21:00.544Z,2.60
2023-03-16T08:26:01.980Z,2.95
2023-03-16T08:31:07.641Z,3.65
2023-03-16T08:36:11.781Z,6.15
2023-03-16T08:41:14.108Z,4.63
2023-03-16T08:46:16.226Z,4.03
2023-03-16T08:51:18.946Z,3.97
2023-03-16T08:56:20.620Z,6.28
2023-03-16T09:01:22.281Z,9.43
2023-03-16T09:06:24.421Z,5.85
2023-03-16T09:11:30.530Z,10.90
2023-03-16T09:16:32.041Z,6.50
2023-03-16T09:21:36.170Z,3.95
2023-03-16T09:26:39.892Z,7.40
2023-03-16T09:31:41.684Z,5.72
2023-03-16T09:36:43.203Z,5.07
2023-03-16T09:41:59.106Z,4.70
2023-03-16T09:47:03.967Z,4.65
2023-03-16T09:52:25.558Z,4.70
2023-03-16T09:57:34.815Z,3.28
2023-03-16T10:02:58.439Z,2.75
2023-03-16T10:08:05.628Z,3.25
2023-03-16T10:13:22.298Z,4.07
2023-03-16T10:18:32.314Z,3.15
2023-03-16T10:23:35.676Z,4.57
2023-03-16T10:28:37.659Z,4.82
2023-03-16T10:33:39.639Z,3.20
2023-03-16T10:38:48.367Z,2.33
2023-03-16T10:44:07.522Z,2.72
2023-03-16T10:49:22.504Z,1.60
2023-03-16T10:54:30.741Z,3.70
2023-03-16T10:59:37.018Z,5.03
2023-03-16T11:04:38.543Z,3.42
2023-03-16T11:09:40.138Z,2.90
2023-03-16T11:14:45.387Z,4.40
2023-03-16T11:19:59.245Z,2.47
2023-03-16T11:25:09.424Z,3.22
2023-03-16T11:30:29.219Z,2.17
2023-03-16T11:35:39.945Z,3.28
2023-03-16T11:41:23.849Z,3.45
2023-03-16T11:46:31.495Z,5.15
2023-03-16T11:51:47.818Z,1.85
2023-03-16T11:57:01.273Z,3.33
2023-03-16T12:02:26.179Z,2.97
2023-03-16T12:07:55.438Z,1.98
2023-03-16T12:13:18.176Z,1.42
2023-03-16T12:18:26.252Z,1.70
2023-03-16T12:23:44.255Z,2.33
2023-03-16T12:28:48.196Z,1.83
2023-03-16T12:34:11.033Z,1.95
2023-03-16T12:39:18.683Z,1.48
2023-03-16T12:44:36.635Z,1.85
2023-03-16T12:49:38.508Z,0.60
2023-03-16T12:54:54.818Z,0.63
2023-03-16T13:00:00.618Z,1.23
2023-03-16T13:05:09.575Z,1.20
2023-03-16T13:10:14.781Z,1.20
2023-03-16T13:15:20.089Z,4.55
2023-03-16T13:20:30.678Z,1.92
2023-03-16T13:25:32.769Z,1.17
2023-03-16T13:30:35.045Z,0.85
2023-03-16T13:35:41.034Z,1.00
2023-03-16T13:40:51.510Z,1.10
2023-03-16T13:50:57.864Z,1.10
2023-03-16T13:56:02.626Z,0.93
2023-03-16T14:01:11.996Z,1.13
2023-03-16T14:06:26.669Z,2.38
2023-03-16T14:11:28.566Z,3.55
2023-03-16T14:16:32.193Z,1.42
2023-03-16T14:21:34.645Z,2.13
2023-03-16T14:26:45.386Z,0.70
2023-03-16T14:31:47.015Z,0.82
2023-03-16T14:36:48.822Z,0.95
2023-03-16T14:41:52.246Z,1.60
2023-03-16T14:46:57.319Z,2.55
2023-03-16T14:52:17.480Z,2.60
2023-03-16T14:57:19.617Z,2.53
2023-03-16T15:02:30.305Z,1.95
2023-03-16T15:07:36.041Z,1.52
2023-03-16T15:12:37.987Z,1.63
2023-03-16T15:17:39.496Z,2.90
2023-03-16T15:22:41.874Z,0.77
2023-03-16T15:27:43.744Z,1.17
2023-03-16T15:32:45.385Z,3.40
2023-03-16T15:37:47.321Z,4.88
2023-03-16T15:42:49.100Z,2.35
2023-03-16T15:47:53.095Z,1.83
2023-03-16T15:53:05.981Z,2.55
2023-03-16T15:58:20.325Z,0.65
2023-03-16T16:03:22.176Z,1.60
2023-03-16T16:08:23.638Z,4.68
2023-03-16T16:13:43.084Z,2.17
2023-03-16T16:18:48.571Z,3.05
2023-03-16T16:23:50.858Z,5.28
2023-03-16T16:28:53.025Z,2.15
2023-03-16T16:33:54.608Z,1.80
2023-03-16T16:38:57.218Z,3.10
2023-03-16T16:44:05.147Z,2.88
2023-03-16T16:49:17.732Z,1.67
2023-03-16T16:54:24.435Z,1.75
2023-03-16T16:59:31.539Z,4.80
2023-03-16T17:04:33.079Z,3.45
2023-03-16T17:09:34.761Z,2.42
2023-03-16T17:14:36.256Z,1.58
2023-03-16T17:19:37.934Z,2.03
2023-03-16T17:24:40.083Z,2.92
2023-03-16T17:29:42.718Z,2.17
2023-03-16T17:34:44.487Z,7.60
2023-03-16T17:39:46.226Z,3.17
2023-03-16T17:44:52.504Z,3.53
2023-03-16T17:49:54.662Z,2.65
2023-03-16T17:54:56.608Z,4.13
2023-03-16T18:00:00.174Z,5.97
2023-03-16T18:05:05.540Z,3.25
2023-03-16T18:10:07.667Z,8.07
2023-03-16T18:15:16.362Z,2.95
2023-03-16T18:20:30.943Z,8.45
2023-03-16T18:25:36.215Z,3.95
2023-03-16T18:30:39.497Z,3.60
2023-03-16T18:35:41.004Z,3.67
2023-03-16T18:40:42.441Z,2.80
2023-03-16T18:45:45.873Z,4.03
2023-03-16T18:50:48.002Z,3.78
2023-03-16T18:55:50.360Z,4.72
2023-03-16T19:00:57.527Z,4.10
2023-03-16T19:06:01.068Z,7.18
2023-03-16T19:11:03.273Z,5.10
2023-03-16T19:16:09.048Z,4.28
2023-03-16T19:21:17.591Z,6.05
2023-03-16T19:26:19.252Z,10.27
2023-03-16T19:31:24.846Z,5.50
2023-03-16T19:36:30.241Z,3.35
2023-03-16T19:41:35.355Z,3.88
2023-03-16T19:46:37.062Z,3.33
2023-03-16T19:51:38.487Z,6.03
2023-03-16T19:56:40.323Z,13.13
2023-03-16T20:01:42.083Z,9.02
2023-03-16T20:06:43.854Z,8.13
2023-03-16T20:11:46.969Z,8.88
2023-03-16T20:16:48.710Z,6.95
2023-03-16T20:21:50.394Z,8.73
2023-03-16T20:26:54.012Z,6.72
2023-03-16T20:31:56.166Z,8.63
2023-03-16T20:36:57.854Z,7.68
2023-03-16T20:41:59.328Z,6.60
2023-03-16T20:47:01.110Z,9.70
2023-03-16T20:52:03.910Z,10.80
2023-03-16T20:57:08.020Z,7.68
2023-03-16T21:02:39.613Z,7.05
2023-03-16T21:07:42.502Z,8.10
2023-03-16T21:12:47.567Z,9.20
2023-03-16T21:17:57.519Z,4.93
2023-03-16T21:22:59.710Z,5.30
2023-03-16T21:28:05.105Z,11.35
2023-03-16T21:33:24.353Z,5.95
2023-03-16T21:38:27.971Z,10.30
2023-03-16T21:43:29.520Z,6.13
2023-03-16T21:48:39.113Z,9.38
2023-03-16T21:53:41.158Z,6.80
2023-03-16T21:58:44.056Z,6.00
2023-03-16T22:03:50.833Z,9.07
2023-03-16T22:08:53.069Z,12.13
2023-03-16T22:13:55.926Z,8.07
2023-03-16T22:18:58.094Z,11.18
2023-03-16T22:24:01.053Z,8.30
2023-03-16T22:29:06.856Z,6.10
2023-03-16T22:34:24.223Z,4.95
2023-03-16T22:39:25.807Z,6.57
2023-03-16T22:44:27.391Z,6.18
2023-03-16T22:49:28.959Z,6.43
2023-03-16T22:54:30.852Z,5.57
2023-03-16T22:59:32.307Z,5.20
2023-03-16T23:04:33.824Z,5.20
2023-03-16T23:09:35.356Z,4.38
2023-03-16T23:14:38.107Z,5.50
2023-03-16T23:19:39.580Z,4.22
2023-03-16T23:24:42.424Z,4.15
2023-03-16T23:29:44.214Z,4.57
2023-03-16T23:34:46.060Z,9.82
2023-03-16T23:39:48.435Z,6.32
2023-03-16T23:44:49.952Z,6.47
2023-03-16T23:49:51.411Z,6.22
2023-03-16T23:54:52.836Z,4.45
2023-03-16T23:59:54.313Z,6.30
